createdAt,value
2019-01-29T00:00:01.778Z,4.60
2019-01-29T00:02:29.894Z,5.20
2019-01-29T00:04:58.007Z,4.33
2019-01-29T00:07:26.368Z,4.60
2019-01-29T00:09:54.592Z,5.03
2019-01-29T00:12:22.749Z,4.33
2019-01-29T00:14:50.858Z,4.63
2019-01-29T00:17:19.032Z,5.03
2019-01-29T00:19:47.194Z,4.70
2019-01-29T00:22:15.486Z,4.17
2019-01-29T00:24:43.729Z,4.40
2019-01-29T00:27:11.833Z,4.47
2019-01-29T00:29:40.139Z,4.53
2019-01-29T00:32:08.277Z,5.07
2019-01-29T00:34:36.382Z,5.13
2019-01-29T00:37:04.762Z,4.77
2019-01-29T00:39:32.881Z,4.33
2019-01-29T00:42:00.987Z,4.53
2019-01-29T00:44:29.169Z,3.93
2019-01-29T00:46:57.257Z,4.13
2019-01-29T00:49:25.369Z,4.67
2019-01-29T00:51:53.554Z,4.87
2019-01-29T00:54:21.662Z,4.23
2019-01-29T00:56:49.771Z,4.17
2019-01-29T00:59:17.963Z,4.27
2019-01-29T01:01:46.079Z,3.97
2019-01-29T01:04:14.242Z,4.40
2019-01-29T01:06:42.406Z,4.30
2019-01-29T01:09:10.501Z,3.60
2019-01-29T01:11:38.646Z,4.43
2019-01-29T01:14:06.902Z,4.43
2019-01-29T01:16:35.052Z,4.83
2019-01-29T01:19:03.238Z,3.70
2019-01-29T01:21:31.827Z,3.87
2019-01-29T01:23:59.921Z,4.00
2019-01-29T01:26:28.026Z,6.03
2019-01-29T01:28:56.346Z,3.70
2019-01-29T01:31:24.458Z,4.37
2019-01-29T01:33:52.621Z,3.90
2019-01-29T01:36:20.905Z,5.27
2019-01-29T01:38:49.052Z,4.50
2019-01-29T01:41:17.214Z,5.00
2019-01-29T01:43:45.337Z,4.03
2019-01-29T01:46:13.434Z,3.60
2019-01-29T01:48:41.600Z,3.47
2019-01-29T01:51:09.847Z,4.37
2019-01-29T01:53:37.949Z,4.80
2019-01-29T01:56:06.067Z,5.50
2019-01-29T01:58:34.298Z,5.30
2019-01-29T02:01:03.976Z,3.93
2019-01-29T02:03:32.096Z,4.33
2019-01-29T02:06:00.363Z,4.57
2019-01-29T02:08:28.449Z,4.17
2019-01-29T02:10:56.607Z,4.87
2019-01-29T02:13:24.729Z,3.30
2019-01-29T02:15:52.847Z,5.17
2019-01-29T02:18:20.942Z,5.20
2019-01-29T02:20:49.481Z,4.63
2019-01-29T02:23:17.780Z,7.37
2019-01-29T02:25:45.875Z,6.27
2019-01-29T02:28:14.134Z,5.87
2019-01-29T02:30:42.238Z,6.43
2019-01-29T02:33:10.347Z,3.87
2019-01-29T02:35:38.653Z,4.77
2019-01-29T02:38:06.785Z,6.83
2019-01-29T02:40:34.880Z,4.20
2019-01-29T02:43:03.149Z,5.00
2019-01-29T02:45:31.271Z,5.47
2019-01-29T02:47:59.382Z,3.20
2019-01-29T02:50:27.519Z,4.70
2019-01-29T02:52:55.625Z,6.43
2019-01-29T02:55:23.718Z,7.07
2019-01-29T02:57:51.993Z,3.50
2019-01-29T03:00:21.665Z,5.20
2019-01-29T03:02:49.773Z,4.53
2019-01-29T03:05:18.300Z,5.37
2019-01-29T03:07:46.680Z,5.20
2019-01-29T03:10:16.276Z,5.80
2019-01-29T03:12:44.455Z,4.07
2019-01-29T03:15:14.097Z,5.40
2019-01-29T03:17:42.286Z,5.87
2019-01-29T03:20:12.285Z,4.60
2019-01-29T03:22:40.446Z,5.07
2019-01-29T03:25:09.678Z,4.77
2019-01-29T03:27:38.051Z,4.43
2019-01-29T03:30:10.818Z,5.63
2019-01-29T03:32:38.930Z,6.13
2019-01-29T03:35:07.775Z,8.37
2019-01-29T03:37:35.949Z,4.33
2019-01-29T03:40:08.738Z,9.03
2019-01-29T03:42:36.890Z,4.93
2019-01-29T03:45:06.700Z,8.33
2019-01-29T03:47:34.805Z,6.53
2019-01-29T03:50:03.225Z,7.80
2019-01-29T03:52:31.333Z,7.80
2019-01-29T03:54:59.426Z,5.83
2019-01-29T03:57:27.681Z,6.10
2019-01-29T03:59:55.793Z,8.60
2019-01-29T04:02:23.886Z,5.27
2019-01-29T04:04:52.060Z,6.47
2019-01-29T04:07:20.150Z,6.57
2019-01-29T04:09:48.461Z,5.57
2019-01-29T04:12:16.722Z,6.17
2019-01-29T04:14:44.855Z,5.57
2019-01-29T04:17:14.333Z,6.73
2019-01-29T04:19:42.896Z,7.00
2019-01-29T04:22:11.132Z,7.37
2019-01-29T04:24:39.655Z,8.00
2019-01-29T04:27:08.081Z,6.67
2019-01-29T04:29:36.215Z,5.77
2019-01-29T04:32:04.311Z,5.90
2019-01-29T04:34:32.511Z,6.00
2019-01-29T04:37:00.612Z,8.07
2019-01-29T04:39:28.767Z,7.77
2019-01-29T04:41:57.089Z,5.23
2019-01-29T04:44:25.205Z,5.87
2019-01-29T04:49:30.724Z,6.97
2019-01-29T04:51:58.934Z,6.83
2019-01-29T04:54:27.032Z,6.63
2019-01-29T04:56:55.212Z,7.17
2019-01-29T04:59:23.408Z,4.80
2019-01-29T05:01:51.489Z,5.53
2019-01-29T05:04:20.034Z,5.33
2019-01-29T05:06:49.759Z,4.73
2019-01-29T05:09:18.017Z,6.90
2019-01-29T05:11:46.190Z,6.20
2019-01-29T05:14:14.287Z,5.60
2019-01-29T05:16:42.423Z,5.40
2019-01-29T05:19:10.621Z,6.23
2019-01-29T05:21:38.719Z,6.50
2019-01-29T05:24:07.391Z,7.90
2019-01-29T05:26:35.749Z,6.27
2019-01-29T05:29:03.928Z,7.97
2019-01-29T05:31:32.104Z,7.83
2019-01-29T05:34:00.452Z,9.77
2019-01-29T05:36:28.601Z,8.03
2019-01-29T05:38:56.756Z,8.50
2019-01-29T05:41:24.908Z,7.43
2019-01-29T05:43:53.010Z,7.10
2019-01-29T05:46:21.167Z,8.27
2019-01-29T05:48:49.298Z,8.03
2019-01-29T05:51:17.648Z,7.80
2019-01-29T05:53:45.748Z,8.27
2019-01-29T05:56:13.865Z,9.50
2019-01-29T05:58:42.014Z,8.30
2019-01-29T06:01:10.114Z,7.70
2019-01-29T06:03:38.387Z,6.93
2019-01-29T06:06:06.575Z,7.47
2019-01-29T06:08:34.716Z,5.90
2019-01-29T06:11:02.911Z,7.67
2019-01-29T06:13:31.070Z,6.67
2019-01-29T06:16:18.593Z,6.97
2019-01-29T06:18:46.769Z,8.43
2019-01-29T06:21:34.337Z,7.03
2019-01-29T06:24:27.934Z,6.47
2019-01-29T06:26:56.460Z,5.93
2019-01-29T06:29:24.650Z,9.03
2019-01-29T06:31:52.798Z,7.57
2019-01-29T06:34:20.993Z,8.13
2019-01-29T06:36:50.894Z,7.87
2019-01-29T06:39:19.029Z,5.77
2019-01-29T06:41:47.313Z,6.63
2019-01-29T06:44:15.425Z,6.10
2019-01-29T06:46:43.567Z,6.10
2019-01-29T06:49:11.772Z,7.93
2019-01-29T06:51:39.953Z,6.57
2019-01-29T06:54:08.064Z,6.27
2019-01-29T06:56:36.219Z,6.90
2019-01-29T06:59:04.716Z,7.30
2019-01-29T07:01:32.828Z,9.00
2019-01-29T07:04:20.426Z,6.23
2019-01-29T07:06:48.551Z,5.50
2019-01-29T07:09:16.725Z,5.37
2019-01-29T07:11:44.926Z,6.27
2019-01-29T07:14:13.174Z,7.80
2019-01-29T07:16:42.938Z,5.87
2019-01-29T07:19:13.269Z,7.07
2019-01-29T07:21:42.519Z,6.13
2019-01-29T07:24:10.774Z,6.53
2019-01-29T07:26:39.116Z,5.60
2019-01-29T07:29:07.733Z,6.33
2019-01-29T07:31:35.903Z,6.40
2019-01-29T07:34:04.231Z,5.50
2019-01-29T07:36:32.424Z,5.10
2019-01-29T07:39:00.553Z,6.47
2019-01-29T07:41:28.977Z,7.83
2019-01-29T07:43:57.092Z,6.60
2019-01-29T07:46:27.885Z,6.57
2019-01-29T07:48:56.153Z,5.73
2019-01-29T07:51:24.315Z,5.93
2019-01-29T07:53:52.436Z,6.33
2019-01-29T07:56:20.564Z,6.80
2019-01-29T07:58:49.336Z,6.73
2019-01-29T08:01:17.572Z,6.50
2019-01-29T08:03:45.846Z,5.87
2019-01-29T08:06:13.973Z,6.70
2019-01-29T08:08:42.182Z,6.77
2019-01-29T08:11:10.334Z,6.00
2019-01-29T08:13:38.458Z,7.20
2019-01-29T08:16:06.576Z,6.20
2019-01-29T08:18:34.717Z,7.33
2019-01-29T08:21:02.866Z,6.60
2019-01-29T08:23:31.028Z,6.70
2019-01-29T08:25:59.185Z,7.83
2019-01-29T08:28:27.293Z,7.23
2019-01-29T08:30:55.437Z,6.10
2019-01-29T08:33:23.690Z,7.23
2019-01-29T08:35:51.853Z,6.63
2019-01-29T08:38:20.022Z,6.10
2019-01-29T08:40:48.173Z,5.53
2019-01-29T08:43:16.286Z,6.03
2019-01-29T08:45:44.381Z,8.63
2019-01-29T08:48:12.910Z,5.83
2019-01-29T08:50:41.118Z,6.83
2019-01-29T08:53:09.248Z,6.20
2019-01-29T08:55:37.517Z,6.13
2019-01-29T08:58:05.700Z,5.57
2019-01-29T09:00:33.845Z,7.37
2019-01-29T09:03:02.155Z,5.93
2019-01-29T09:05:30.303Z,5.43
2019-01-29T09:07:58.662Z,5.03
2019-01-29T09:10:26.975Z,5.73
2019-01-29T09:15:25.147Z,4.97
2019-01-29T09:17:53.361Z,4.73
2019-01-29T09:20:22.084Z,4.87
2019-01-29T09:22:50.324Z,4.50
2019-01-29T09:25:22.571Z,4.43
2019-01-29T09:27:48.546Z,5.57
2019-01-29T09:30:17.454Z,4.33
2019-01-29T09:33:06.475Z,4.87
2019-01-29T09:35:34.776Z,4.87
2019-01-29T09:38:02.905Z,4.40
2019-01-29T09:40:31.222Z,5.20
2019-01-29T09:42:59.358Z,6.13
2019-01-29T09:45:27.603Z,5.93
2019-01-29T09:47:56.040Z,4.90
2019-01-29T09:50:24.251Z,5.57
2019-01-29T09:53:11.918Z,4.87
2019-01-29T09:55:40.041Z,5.03
2019-01-29T09:58:08.162Z,5.00
2019-01-29T10:00:37.661Z,4.20
2019-01-29T10:03:06.046Z,4.00
2019-01-29T10:05:34.225Z,4.20
2019-01-29T10:08:21.766Z,4.53
2019-01-29T10:10:50.217Z,4.57
2019-01-29T10:13:18.346Z,4.80
2019-01-29T10:15:46.564Z,3.67
2019-01-29T10:18:14.791Z,5.13
2019-01-29T10:20:42.922Z,2.90
2019-01-29T10:23:30.457Z,3.43
2019-01-29T10:25:58.647Z,3.57
2019-01-29T10:28:26.790Z,3.50
2019-01-29T10:30:55.440Z,3.17
2019-01-29T10:33:42.904Z,3.07
2019-01-29T10:39:12.998Z,5.30
2019-01-29T10:41:41.117Z,3.83
2019-01-29T10:44:09.256Z,4.10
2019-01-29T10:46:37.371Z,4.10
2019-01-29T10:49:05.529Z,6.57
2019-01-29T10:51:33.673Z,3.53
2019-01-29T10:54:21.333Z,3.77
2019-01-29T10:56:49.532Z,3.37
2019-01-29T10:59:17.674Z,3.00
2019-01-29T11:01:45.854Z,4.37
2019-01-29T11:04:14.006Z,4.53
2019-01-29T11:06:43.788Z,4.93
2019-01-29T11:09:12.416Z,4.53
2019-01-29T11:11:40.546Z,6.07
2019-01-29T11:14:28.006Z,6.57
2019-01-29T11:20:29.499Z,4.60
2019-01-29T11:22:57.631Z,6.23
2019-01-29T11:25:45.192Z,4.50
2019-01-29T11:28:38.522Z,4.13
2019-01-29T11:31:06.921Z,4.30
2019-01-29T11:33:35.025Z,4.47
2019-01-29T11:36:03.186Z,5.90
2019-01-29T11:38:31.369Z,5.47
2019-01-29T11:40:59.583Z,5.53
2019-01-29T11:43:27.667Z,3.47
2019-01-29T11:45:55.879Z,4.00
2019-01-29T11:48:24.065Z,4.40
2019-01-29T11:51:11.605Z,5.57
2019-01-29T11:53:39.764Z,4.63
2019-01-29T11:56:07.894Z,4.03
2019-01-29T11:58:36.185Z,4.07
2019-01-29T12:01:06.122Z,5.20
2019-01-29T12:03:34.303Z,4.43
2019-01-29T12:06:22.092Z,4.43
2019-01-29T12:08:50.238Z,4.20
2019-01-29T12:11:18.367Z,4.53
2019-01-29T12:14:05.994Z,6.00
2019-01-29T12:16:53.502Z,4.30
2019-01-29T12:19:21.907Z,4.30
2019-01-29T12:21:49.998Z,3.67
2019-01-29T12:24:18.129Z,4.17
2019-01-29T12:26:46.687Z,4.60
2019-01-29T12:29:34.130Z,3.83
2019-01-29T12:32:02.703Z,5.53
2019-01-29T12:34:30.831Z,3.50
2019-01-29T12:37:18.591Z,3.77
2019-01-29T12:39:46.695Z,4.83
2019-01-29T12:42:34.258Z,3.67
2019-01-29T12:45:02.390Z,3.43
2019-01-29T12:47:30.485Z,3.90
2019-01-29T12:49:58.782Z,5.23
2019-01-29T12:55:15.840Z,3.40
2019-01-29T12:57:43.943Z,3.37
2019-01-29T13:03:09.927Z,4.60
2019-01-29T13:05:38.023Z,3.63
2019-01-29T13:08:06.205Z,4.30
2019-01-29T13:10:34.642Z,5.03
2019-01-29T13:13:02.741Z,2.93
2019-01-29T13:15:51.826Z,3.43
2019-01-29T13:18:20.005Z,4.00
2019-01-29T13:20:48.129Z,4.40
2019-01-29T13:23:35.718Z,3.10
2019-01-29T13:26:04.182Z,3.87
2019-01-29T13:28:51.870Z,4.80
2019-01-29T13:31:20.090Z,4.10
2019-01-29T13:34:07.760Z,4.80
2019-01-29T13:42:50.566Z,3.33
2019-01-29T13:45:18.921Z,3.10
2019-01-29T13:47:47.022Z,4.30
2019-01-29T13:50:34.624Z,3.00
2019-01-29T13:53:22.252Z,3.37
2019-01-29T13:55:50.354Z,3.27
2019-01-29T13:58:18.437Z,3.40
2019-01-29T14:00:46.614Z,4.47
2019-01-29T14:03:14.777Z,3.50
2019-01-29T14:05:42.917Z,3.90
2019-01-29T14:08:11.075Z,5.30
2019-01-29T14:10:39.274Z,3.57
2019-01-29T14:13:07.363Z,3.33
2019-01-29T14:18:46.322Z,3.57
2019-01-29T14:21:14.576Z,7.13
2019-01-29T14:23:42.662Z,5.77
2019-01-29T14:26:12.511Z,3.77
2019-01-29T14:28:40.977Z,2.80
2019-01-29T14:31:09.210Z,2.97
2019-01-29T14:33:37.371Z,5.03
2019-01-29T14:36:05.904Z,5.40
2019-01-29T14:38:35.569Z,3.80
2019-01-29T14:41:03.737Z,7.00
2019-01-29T14:43:51.225Z,5.13
2019-01-29T14:46:19.568Z,5.77
2019-01-29T14:48:47.715Z,4.03
2019-01-29T14:51:16.031Z,3.97
2019-01-29T14:54:03.790Z,4.20
2019-01-29T14:56:57.346Z,4.00
2019-01-29T15:02:38.642Z,6.97
2019-01-29T15:05:07.573Z,4.23
2019-01-29T15:07:35.672Z,4.17
2019-01-29T15:10:05.586Z,6.67
2019-01-29T15:12:33.752Z,4.53
2019-01-29T15:15:01.851Z,6.50
2019-01-29T15:17:34.333Z,6.63
2019-01-29T15:20:02.480Z,6.27
2019-01-29T15:22:30.633Z,7.77
2019-01-29T15:24:58.935Z,6.63
2019-01-29T15:27:27.022Z,5.50
2019-01-29T15:29:55.126Z,5.27
2019-01-29T15:32:42.723Z,5.90
2019-01-29T15:35:10.901Z,5.23
2019-01-29T15:37:58.405Z,6.63
2019-01-29T15:40:26.496Z,7.10
2019-01-29T15:42:56.134Z,6.77
2019-01-29T15:45:43.945Z,7.17
2019-01-29T15:48:12.055Z,5.47
2019-01-29T15:50:40.365Z,4.70
2019-01-29T15:53:08.585Z,3.80
2019-01-29T15:55:56.058Z,4.63
2019-01-29T15:58:24.628Z,4.50
2019-01-29T16:00:52.828Z,6.27
2019-01-29T16:03:21.042Z,5.23
2019-01-29T16:05:49.492Z,5.10
2019-01-29T16:08:17.729Z,8.67
2019-01-29T16:10:46.313Z,7.03
2019-01-29T16:13:14.763Z,5.57
2019-01-29T16:15:43.262Z,7.83
2019-01-29T16:18:11.866Z,9.40
2019-01-29T16:20:40.328Z,6.40
2019-01-29T16:23:08.533Z,6.80
2019-01-29T16:25:36.826Z,6.83
2019-01-29T16:28:05.344Z,6.00
2019-01-29T16:30:34.453Z,4.80
2019-01-29T16:33:02.661Z,4.80
2019-01-29T16:35:32.472Z,5.53
2019-01-29T16:38:20.241Z,5.43
2019-01-29T16:40:48.838Z,4.40
2019-01-29T16:43:17.043Z,4.10
2019-01-29T16:45:45.181Z,4.60
2019-01-29T16:48:13.681Z,4.57
2019-01-29T16:50:41.892Z,4.20
2019-01-29T16:53:10.536Z,4.17
2019-01-29T16:55:58.068Z,5.70
2019-01-29T16:58:26.267Z,5.17
2019-01-29T17:00:54.467Z,5.87
2019-01-29T17:03:22.687Z,4.73
2019-01-29T17:05:50.889Z,6.80
2019-01-29T17:08:19.030Z,5.63
2019-01-29T17:10:47.412Z,5.20
2019-01-29T17:13:34.897Z,6.50
2019-01-29T17:16:04.522Z,5.33
2019-01-29T17:18:33.337Z,4.97
2019-01-29T17:21:02.136Z,5.97
2019-01-29T17:23:31.370Z,6.13
2019-01-29T17:26:00.172Z,6.03
2019-01-29T17:28:29.105Z,5.93
2019-01-29T17:30:58.795Z,6.37
2019-01-29T17:33:28.024Z,6.17
2019-01-29T17:35:56.993Z,6.83
2019-01-29T17:38:25.898Z,7.13
2019-01-29T17:40:54.969Z,7.80
2019-01-29T17:43:23.919Z,8.50
2019-01-29T17:45:52.998Z,7.47
2019-01-29T17:48:22.014Z,6.80
2019-01-29T17:51:11.354Z,8.93
2019-01-29T17:53:40.520Z,8.23
2019-01-29T17:56:09.406Z,7.90
2019-01-29T17:58:38.531Z,7.93
2019-01-29T18:01:08.081Z,7.83
2019-01-29T18:03:37.196Z,8.27
2019-01-29T18:06:06.256Z,8.37
2019-01-29T18:08:35.406Z,9.77
2019-01-29T18:11:04.806Z,8.77
2019-01-29T18:13:34.207Z,8.70
2019-01-29T18:16:03.225Z,9.17
2019-01-29T18:18:32.457Z,7.67
2019-01-29T18:21:01.673Z,7.93
2019-01-29T18:23:30.839Z,8.60
2019-01-29T18:25:59.621Z,8.67
2019-01-29T18:28:28.513Z,8.33
2019-01-29T18:30:57.286Z,9.70
2019-01-29T18:33:26.146Z,8.37
2019-01-29T18:35:55.079Z,8.60
2019-01-29T18:38:43.172Z,10.27
2019-01-29T18:41:12.402Z,10.03
2019-01-29T18:43:41.723Z,9.90
2019-01-29T18:46:11.347Z,9.40
2019-01-29T18:48:40.834Z,9.63
2019-01-29T18:51:10.271Z,8.60
2019-01-29T18:53:59.744Z,9.37
2019-01-29T18:56:29.240Z,10.70
2019-01-29T18:58:58.734Z,9.27
2019-01-29T19:01:28.460Z,9.47
2019-01-29T19:03:57.944Z,9.00
2019-01-29T19:06:27.092Z,9.90
2019-01-29T19:08:56.471Z,9.90
2019-01-29T19:11:25.532Z,9.10
2019-01-29T19:14:13.890Z,10.67
2019-01-29T19:16:43.028Z,9.23
2019-01-29T19:19:14.679Z,9.03
2019-01-29T19:22:03.937Z,10.33
2019-01-29T19:24:33.281Z,8.53
2019-01-29T19:27:02.623Z,8.27
2019-01-29T19:29:31.820Z,8.97
2019-01-29T19:32:01.150Z,8.70
2019-01-29T19:34:50.602Z,8.17
2019-01-29T19:37:20.514Z,10.37
2019-01-29T19:39:50.222Z,8.93
2019-01-29T19:42:27.310Z,8.73
2019-01-29T19:44:51.461Z,8.93
2019-01-29T19:47:41.089Z,9.07
2019-01-29T19:50:19.055Z,10.23
2019-01-29T19:52:48.500Z,10.17
2019-01-29T19:55:18.086Z,10.57
2019-01-29T19:57:47.781Z,11.10
2019-01-29T20:00:19.976Z,13.30
2019-01-29T20:02:49.919Z,12.13
2019-01-29T20:05:20.026Z,11.27
2019-01-29T20:07:49.895Z,11.70
2019-01-29T20:10:21.291Z,11.77
2019-01-29T20:13:11.538Z,13.00
2019-01-29T20:15:41.501Z,11.87
2019-01-29T20:18:11.351Z,12.67
2019-01-29T20:20:41.796Z,12.33
2019-01-29T20:23:30.006Z,12.13
2019-01-29T20:26:18.314Z,15.37
2019-01-29T20:28:49.451Z,12.40
2019-01-29T20:31:18.402Z,12.00
2019-01-29T20:33:47.412Z,13.00
2019-01-29T20:36:16.137Z,14.17
2019-01-29T20:38:44.966Z,13.17
2019-01-29T20:41:34.300Z,15.73
2019-01-29T20:44:14.921Z,13.97
2019-01-29T20:46:44.218Z,14.20
2019-01-29T20:49:13.125Z,14.60
2019-01-29T20:51:41.898Z,16.33
2019-01-29T20:54:10.417Z,16.30
2019-01-29T20:56:38.885Z,17.27
2019-01-29T20:59:07.300Z,16.17
2019-01-29T21:01:36.092Z,13.87
2019-01-29T21:04:04.662Z,14.83
2019-01-29T21:06:33.093Z,16.23
2019-01-29T21:09:01.612Z,15.40
2019-01-29T21:11:30.110Z,15.10
2019-01-29T21:13:58.604Z,15.23
2019-01-29T21:16:27.057Z,16.83
2019-01-29T21:18:55.602Z,14.73
2019-01-29T21:21:24.075Z,14.27
2019-01-29T21:23:52.618Z,14.77
2019-01-29T21:26:21.046Z,14.07
2019-01-29T21:29:11.411Z,16.70
2019-01-29T21:31:39.822Z,14.40
2019-01-29T21:34:08.239Z,14.30
2019-01-29T21:36:36.750Z,14.43
2019-01-29T21:39:07.994Z,16.17
2019-01-29T21:41:36.453Z,13.37
2019-01-29T21:44:05.208Z,14.60
2019-01-29T21:46:33.625Z,14.43
2019-01-29T21:49:02.429Z,14.17
2019-01-29T21:51:30.913Z,15.53
2019-01-29T21:53:59.330Z,14.67
2019-01-29T21:56:27.753Z,15.87
2019-01-29T21:58:56.553Z,15.10
2019-01-29T22:01:24.981Z,16.00
2019-01-29T22:03:53.432Z,16.30
2019-01-29T22:06:21.906Z,14.30
2019-01-29T22:08:50.330Z,14.67
2019-01-29T22:11:18.814Z,13.43
2019-01-29T22:13:47.271Z,12.93
2019-01-29T22:16:15.690Z,15.23
2019-01-29T22:18:44.120Z,13.20
2019-01-29T22:21:12.772Z,15.98
2019-01-29T22:23:41.226Z,15.13
2019-01-29T22:26:09.650Z,15.53
2019-01-29T22:28:39.660Z,14.57
2019-01-29T22:31:12.245Z,14.30
2019-01-29T22:33:40.723Z,14.40
2019-01-29T22:36:09.290Z,14.73
2019-01-29T22:38:37.758Z,14.13
2019-01-29T22:41:06.203Z,14.23
2019-01-29T22:43:34.791Z,14.07
2019-01-29T22:46:03.340Z,16.03
2019-01-29T22:48:31.760Z,13.40
2019-01-29T22:51:00.234Z,14.63
2019-01-29T22:53:30.244Z,13.47
2019-01-29T22:55:58.726Z,13.73
2019-01-29T22:58:27.220Z,16.70
2019-01-29T23:00:59.866Z,15.30
2019-01-29T23:03:34.164Z,12.83
2019-01-29T23:06:11.024Z,14.20
2019-01-29T23:08:39.681Z,13.60
2019-01-29T23:11:08.130Z,15.53
2019-01-29T23:13:36.612Z,14.10
2019-01-29T23:16:05.423Z,13.27
2019-01-29T23:18:33.855Z,13.23
2019-01-29T23:21:02.274Z,13.33
2019-01-29T23:23:30.897Z,14.47
2019-01-29T23:25:59.376Z,12.80
2019-01-29T23:28:27.859Z,13.10
2019-01-29T23:30:56.429Z,12.40
2019-01-29T23:33:24.929Z,12.03
2019-01-29T23:35:53.617Z,15.70
2019-01-29T23:38:22.262Z,11.90
2019-01-29T23:40:50.681Z,13.63
2019-01-29T23:43:19.111Z,12.30
2019-01-29T23:45:47.701Z,11.87
2019-01-29T23:48:16.154Z,12.67
2019-01-29T23:50:44.595Z,13.23
2019-01-29T23:53:13.107Z,13.57
2019-01-29T23:55:44.179Z,12.37
2019-01-29T23:58:12.592Z,12.23
